Time;durP1;ratioP1;P1;durP2;ratioP2;P2;SDS_P1;SDS_P2;PMS_P1;PMS_P2;Temp;Humidity;BMP_temperature;BMP_pressure;BME280_temperature;BME280_humidity;BME280_pressure;Samples;Min_cycle;Max_cycle;Signal;HPM_P1;HPM_P2
2021/09/10 00:01:18;;;;;;;;;;;;;;;-144.99;66.54;52138.28;5025824;28;20282;-81
2021/09/10 00:03:44;;;;;;;;;;;;;;;-144.99;66.65;52154.59;5019585;28;20289;-83
2021/09/10 00:06:11;;;;;;;;;;;;;;;-144.99;66.52;52103.66;5037757;28;19952;-79
2021/09/10 00:08:38;;;;;;;;;;;;;;;-144.99;66.54;52152.56;5025584;28;20312;-79
2021/09/10 00:11:05;;;;;;;;;;;;;;;-144.99;66.70;52134.22;5025262;28;20327;-79
2021/09/10 00:13:31;;;;;;;;;;;;;;;-144.99;66.62;52158.66;5026770;28;19925;-78
2021/09/10 00:15:57;;;;;;;;;;;;;;;-144.99;66.84;52140.31;5028647;28;19928;-78
2021/09/10 00:18:24;;;;;;;;;;;;;;;-144.99;66.55;52168.84;5025080;28;19925;-79
2021/09/10 00:20:50;;;;;;;;;;;;;;;-144.99;66.34;52136.25;5024254;28;19983;-79
2021/09/10 00:23:16;;;;;;;;;;;;;;;-144.99;66.46;52136.25;5023694;28;20032;-78
2021/09/10 00:25:44;;;;;;;;;;;;;;;-144.99;66.62;52166.81;5026507;28;20346;-79
2021/09/10 00:28:11;;;;;;;;;;;;;;;-144.99;66.86;52126.06;5025623;28;20043;-78
2021/09/10 00:30:37;;;;;;;;;;;;;;;-144.99;66.64;52113.84;5020399;28;19929;-80
2021/09/10 00:33:03;;;;;;;;;;;;;;;-144.99;66.60;52134.22;5025110;28;19928;-78
2021/09/10 00:35:30;;;;;;;;;;;;;;;-144.99;66.47;52181.09;5027665;28;19925;-76
2021/09/10 00:37:56;;;;;;;;;;;;;;;-144.99;66.55;52140.31;5028543;28;20182;-77
2021/09/10 00:40:22;;;;;;;;;;;;;;;-144.99;66.86;52142.38;5025048;28;19924;-78
2021/09/10 00:42:50;;;;;;;;;;;;;;;-144.99;66.74;52146.44;5025515;28;19921;-79
2021/09/10 00:45:16;;;;;;;;;;;;;;;-144.99;66.82;52162.75;5026973;28;19921;-81
2021/09/10 00:47:42;;;;;;;;;;;;;;;-144.99;66.81;52162.75;4679448;28;9999907;-79
2021/09/10 00:50:09;;;;;;;;;;;;;;;-144.99;67.07;52134.22;5022688;28;19925;-78
2021/09/10 00:52:35;;;;;;;;;;;;;;;-144.99;67.40;52166.81;5022365;28;19928;-79
2021/09/10 00:55:02;;;;;;;;;;;;;;;-144.99;67.46;52162.75;5022931;28;19936;-75
2021/09/10 00:57:28;;;;;;;;;;;;;;;-144.99;67.71;52162.75;5024168;28;19936;-78
2021/09/10 00:59:56;;;;;;;;;;;;;;;-144.99;68.31;52156.63;5020467;28;19952;-79
2021/09/10 01:02:22;;;;;;;;;;;;;;;-144.99;68.88;52177.00;5022616;28;19936;-77
2021/09/10 01:04:48;;;;;;;;;;;;;;;-144.99;69.30;52179.06;5032673;28;19920;-81
2021/09/10 01:07:15;;;;;;;;;;;;;;;-144.99;69.71;52117.91;5032842;28;19925;-80
2021/09/10 01:09:42;;;;;;;;;;;;;;;-144.99;70.11;52187.19;5030977;28;20012;-80
2021/09/10 01:12:09;;;;;;;;;;;;;;;-144.99;70.10;52187.19;5038675;28;20013;-83
2021/09/10 01:14:35;;;;;;;;;;;;;;;-144.99;70.37;52124.03;5035928;28;19932;-82
2021/09/10 01:17:03;;;;;;;;;;;;;;;-144.99;70.58;52191.28;5042944;28;19909;-79
2021/09/10 01:19:31;;;;;;;;;;;;;;;-144.99;70.78;52174.97;5038531;28;19921;-82
2021/09/10 01:21:59;;;;;;;;;;;;;;;-144.99;70.61;52156.63;5033101;28;19925;-82
2021/09/10 01:24:29;;;;;;;;;;;;;;;-144.99;70.89;52156.63;5034594;28;19925;-84
2021/09/10 01:26:56;;;;;;;;;;;;;;;-144.99;71.12;52130.13;5040523;28;19936;-87
2021/09/10 01:29:22;;;;;;;;;;;;;;;-144.99;70.89;52142.38;5046572;28;20093;-84
2021/09/10 01:31:49;;;;;;;;;;;;;;;-144.99;70.94;52142.38;5039270;28;19921;-81
2021/09/10 01:34:15;;;;;;;;;;;;;;;-144.99;70.88;52174.97;5036763;28;19921;-79
2021/09/10 01:36:41;;;;;;;;;;;;;;;-144.99;70.89;52174.97;5037981;28;19932;-81
2021/09/10 01:39:08;;;;;;;;;;;;;;;-144.99;70.92;52170.91;5033107;28;20035;-80
2021/09/10 01:41:36;;;;;;;;;;;;;;;-144.99;70.95;52162.75;5035584;28;19927;-82
2021/09/10 01:44:02;;;;;;;;;;;;;;;-144.99;71.03;52158.66;5041759;28;19921;-81
2021/09/10 01:46:28;;;;;;;;;;;;;;;-144.99;71.07;52156.63;5043060;28;19936;-84
2021/09/10 01:48:55;;;;;;;;;;;;;;;-144.99;70.87;52191.28;5034212;28;19921;-82
2021/09/10 01:51:28;;;;;;;;;;;;;;;-144.99;71.08;52199.44;5028414;28;19962;-80
2021/09/10 01:53:54;;;;;;;;;;;;;;;-144.99;71.33;52138.28;5030179;28;19936;-84
2021/09/10 01:56:21;;;;;;;;;;;;;;;-144.99;71.39;52166.81;5029643;28;20671;-81
2021/09/10 01:58:49;;;;;;;;;;;;;;;-144.99;71.86;52191.28;5025761;28;20452;-82
2021/09/10 02:01:20;;;;;;;;;;;;;;;-144.99;71.87;52146.44;5025055;28;19925;-83
2021/09/10 02:03:46;;;;;;;;;;;;;;;-144.99;71.87;52126.06;5038158;28;19937;-82
2021/09/10 02:06:13;;;;;;;;;;;;;;;-144.99;72.01;52179.06;5029319;28;19959;-80
2021/09/10 02:08:39;;;;;;;;;;;;;;;-144.99;72.40;52195.34;5034184;28;19921;-81
2021/09/10 02:11:05;;;;;;;;;;;;;;;-144.99;72.74;52166.81;5052226;28;19909;-85
2021/09/10 02:13:32;;;;;;;;;;;;;;;-144.99;72.69;52170.91;5035076;28;19921;-82
2021/09/10 02:15:59;;;;;;;;;;;;;;;-144.99;72.78;52162.75;5043133;28;19966;-84
2021/09/10 02:18:26;;;;;;;;;;;;;;;-144.99;72.76;52168.84;5048596;28;19921;-80
2021/09/10 02:20:52;;;;;;;;;;;;;;;-144.99;72.90;52168.84;5032492;28;19933;-80
2021/09/10 02:23:18;;;;;;;;;;;;;;;-144.99;73.13;52156.63;5031620;28;19928;-81
2021/09/10 02:25:45;;;;;;;;;;;;;;;-144.99;73.13;52142.38;5032099;28;21372;-79
2021/09/10 02:28:11;;;;;;;;;;;;;;;-144.99;73.30;52158.66;5032470;28;19948;-79
2021/09/10 02:30:37;;;;;;;;;;;;;;;-144.99;73.61;52154.59;5032827;28;19948;-78
2021/09/10 02:33:05;;;;;;;;;;;;;;;-144.99;73.57;52160.72;5040532;28;19935;-79
2021/09/10 02:35:31;;;;;;;;;;;;;;;-144.99;73.59;52183.13;5028899;28;20325;-79
2021/09/10 02:37:58;;;;;;;;;;;;;;;-144.99;73.80;52154.59;5034316;28;19966;-80
2021/09/10 02:40:24;;;;;;;;;;;;;;;-144.99;74.09;52150.53;5039857;28;19943;-81
2021/09/10 02:42:50;;;;;;;;;;;;;;;-144.99;74.27;52150.53;5034280;28;19925;-80
2021/09/10 02:45:17;;;;;;;;;;;;;;;-144.99;74.50;52181.09;5030194;28;19920;-80
2021/09/10 02:47:43;;;;;;;;;;;;;;;-144.99;74.95;52199.44;5032658;28;20042;-80
2021/09/10 02:50:11;;;;;;;;;;;;;;;-144.99;75.32;52154.59;5031763;28;19946;-80
2021/09/10 02:52:37;;;;;;;;;;;;;;;-144.99;75.75;52154.59;5032145;28;20384;-80
2021/09/10 02:55:04;;;;;;;;;;;;;;;-144.99;76.29;52156.63;5030533;28;19925;-80
2021/09/10 02:57:30;;;;;;;;;;;;;;;-144.99;76.68;52134.22;5034065;28;19925;-81
2021/09/10 02:59:57;;;;;;;;;;;;;;;-144.99;76.84;52168.84;5027035;28;19921;-83
2021/09/10 03:02:23;;;;;;;;;;;;;;;-144.99;77.53;52172.94;5026017;28;19955;-80
2021/09/10 03:04:49;;;;;;;;;;;;;;;-144.99;77.37;52134.22;5030397;28;19947;-80
2021/09/10 03:07:17;;;;;;;;;;;;;;;-144.99;77.39;52166.81;5029673;28;19949;-81
2021/09/10 03:09:43;;;;;;;;;;;;;;;-144.99;78.06;52126.06;5027936;28;20043;-80
2021/09/10 03:12:10;;;;;;;;;;;;;;;-144.99;78.57;52154.59;5030155;28;19972;-80
2021/09/10 03:14:37;;;;;;;;;;;;;;;-144.99;79.58;52158.66;5032970;28;19921;-81
2021/09/10 03:17:03;;;;;;;;;;;;;;;-144.99;79.90;52172.94;5032270;28;19933;-81
2021/09/10 03:19:30;;;;;;;;;;;;;;;-144.99;80.82;52179.06;5034615;28;20003;-82
2021/09/10 03:21:56;;;;;;;;;;;;;;;-144.99;81.65;52211.66;5030659;28;20052;-83
2021/09/10 03:24:24;;;;;;;;;;;;;;;-144.99;82.08;52199.44;5030037;28;19946;-82
2021/09/10 03:26:50;;;;;;;;;;;;;;;-144.99;82.94;52174.97;5031469;28;19962;-81
2021/09/10 03:29:16;;;;;;;;;;;;;;;-144.99;82.86;52162.75;5030704;28;19941;-84
2021/09/10 03:31:43;;;;;;;;;;;;;;;-144.99;83.20;52156.63;5032163;28;19920;-82
2021/09/10 03:34:09;;;;;;;;;;;;;;;-144.99;83.98;52170.91;5033951;28;19932;-82
2021/09/10 03:36:36;;;;;;;;;;;;;;;-144.99;84.55;52166.81;5028757;28;19928;-80
2021/09/10 03:39:02;;;;;;;;;;;;;;;-144.99;84.56;52187.19;5023554;28;20355;-78
2021/09/10 03:41:30;;;;;;;;;;;;;;;-144.99;84.70;52170.91;5033402;28;19946;-80
2021/09/10 03:43:56;;;;;;;;;;;;;;;-144.99;84.52;52158.66;5029545;28;19929;-78
2021/09/10 03:46:22;;;;;;;;;;;;;;;-144.99;85.10;52179.06;5028264;28;19960;-78
2021/09/10 03:48:49;;;;;;;;;;;;;;;-144.99;85.03;52162.75;5029010;28;19924;-79
2021/09/10 03:51:16;;;;;;;;;;;;;;;-144.99;84.90;52191.28;5029428;28;19921;-80
2021/09/10 03:53:42;;;;;;;;;;;;;;;-144.99;85.07;52130.13;5030108;28;19925;-80
2021/09/10 03:56:09;;;;;;;;;;;;;;;-144.99;85.26;52158.66;5029612;28;19933;-79
2021/09/10 03:58:36;;;;;;;;;;;;;;;-144.99;85.49;52126.06;5033870;28;19956;-80
2021/09/10 04:01:03;;;;;;;;;;;;;;;-144.99;85.75;52179.06;5035773;28;19931;-81
2021/09/10 04:03:29;;;;;;;;;;;;;;;-144.99;86.40;52130.13;5039537;28;19925;-80
2021/09/10 04:05:55;;;;;;;;;;;;;;;-144.99;86.41;52211.66;5039938;28;19932;-80
2021/09/10 04:08:22;;;;;;;;;;;;;;;-144.99;87.02;52174.97;5032477;28;19921;-78
2021/09/10 04:10:48;;;;;;;;;;;;;;;-144.99;87.18;52189.25;5031875;28;19964;-80
2021/09/10 04:13:14;;;;;;;;;;;;;;;-144.99;88.04;52195.34;5033589;28;19921;-80
2021/09/10 04:15:42;;;;;;;;;;;;;;;-144.99;88.06;52183.13;5030237;28;19920;-79
2021/09/10 04:18:08;;;;;;;;;;;;;;;-144.99;88.00;52154.59;5026472;28;19921;-77
2021/09/10 04:20:35;;;;;;;;;;;;;;;-144.99;88.22;52138.28;5029900;28;20379;-79
2021/09/10 04:23:01;;;;;;;;;;;;;;;-144.99;88.27;52162.75;5029223;28;19924;-80
2021/09/10 04:25:28;;;;;;;;;;;;;;;-144.99;88.36;52126.06;5031935;28;20399;-77
2021/09/10 04:27:54;;;;;;;;;;;;;;;-144.99;88.42;52166.81;5027975;28;19968;-76
2021/09/10 04:30:20;;;;;;;;;;;;;;;-144.99;88.23;52191.28;5033929;28;19921;-77
2021/09/10 04:32:48;;;;;;;;;;;;;;;-144.99;87.81;52156.63;5033089;28;19921;-78
2021/09/10 04:35:14;;;;;;;;;;;;;;;-144.99;87.39;52170.91;5029615;28;20413;-79
2021/09/10 04:37:41;;;;;;;;;;;;;;;-144.99;87.88;52181.09;5029532;28;19925;-80
2021/09/10 04:40:09;;;;;;;;;;;;;;;-144.99;88.23;52168.84;5033503;28;19967;-78
2021/09/10 04:42:35;;;;;;;;;;;;;;;-144.99;88.37;52150.53;5027296;28;19921;-80
2021/09/10 04:45:02;;;;;;;;;;;;;;;-144.99;88.41;52162.75;5028624;28;19921;-78
2021/09/10 04:47:28;;;;;;;;;;;;;;;-144.99;88.51;52193.31;5027341;28;20268;-78
2021/09/10 04:49:56;;;;;;;;;;;;;;;-144.99;88.28;52158.66;5027222;28;19964;-80
2021/09/10 04:52:22;;;;;;;;;;;;;;;-144.99;88.33;52166.81;5025726;28;19944;-78
2021/09/10 04:54:48;;;;;;;;;;;;;;;-144.99;88.23;52187.19;5034075;28;19967;-79
2021/09/10 04:57:15;;;;;;;;;;;;;;;-144.99;88.52;52154.59;5037305;28;19966;-79
2021/09/10 04:59:41;;;;;;;;;;;;;;;-144.99;88.72;52142.38;5030371;28;19944;-79
2021/09/10 05:02:07;;;;;;;;;;;;;;;-144.99;88.97;52183.13;5029740;28;20510;-78
2021/09/10 05:04:34;;;;;;;;;;;;;;;-144.99;89.11;52162.75;5031240;28;20287;-81
2021/09/10 05:07:01;;;;;;;;;;;;;;;-144.99;89.14;52160.72;5030032;28;19950;-78
2021/09/10 05:09:28;;;;;;;;;;;;;;;-144.99;89.35;52187.19;5032147;28;20168;-81
2021/09/10 05:11:54;;;;;;;;;;;;;;;-144.99;89.55;52154.59;5032831;28;20401;-80
2021/09/10 05:14:20;;;;;;;;;;;;;;;-144.99;89.71;52179.06;5032836;28;19944;-80
2021/09/10 05:16:47;;;;;;;;;;;;;;;-144.99;89.63;52152.56;5025684;28;19982;-81
2021/09/10 05:19:13;;;;;;;;;;;;;;;-144.99;89.61;52174.97;5031925;28;19940;-80
2021/09/10 05:21:40;;;;;;;;;;;;;;;-144.99;89.55;52187.19;5032766;28;19942;-83
2021/09/10 05:24:08;;;;;;;;;;;;;;;-144.99;89.68;52174.97;5033506;28;20333;-81
2021/09/10 05:26:34;;;;;;;;;;;;;;;-144.99;89.95;52134.22;5029808;28;19959;-83
2021/09/10 05:29:00;;;;;;;;;;;;;;;-144.99;89.88;52191.28;5032987;28;19959;-84
2021/09/10 05:31:27;;;;;;;;;;;;;;;-144.99;89.58;52162.75;5023448;28;19940;-81
2021/09/10 05:33:54;;;;;;;;;;;;;;;-144.99;89.72;52146.44;5037776;28;19995;-81
2021/09/10 05:36:36;;;;;;;;;;;;;;;-144.99;89.82;52154.59;5061987;22;19951;-75
2021/09/10 05:39:02;;;;;;;;;;;;;;;-144.99;89.64;52162.75;5075320;28;19924;-75
2021/09/10 05:41:30;;;;;;;;;;;;;;;-144.99;89.77;52170.91;5071063;28;19924;-74
2021/09/10 05:43:56;;;;;;;;;;;;;;;-144.99;89.71;52154.59;5061260;28;19924;-75
2021/09/10 05:46:22;;;;;;;;;;;;;;;-144.99;89.62;52187.19;5068613;28;20415;-76
2021/09/10 05:48:49;;;;;;;;;;;;;;;-144.99;89.69;52158.66;5073535;28;19958;-76
2021/09/10 05:51:15;;;;;;;;;;;;;;;-144.99;89.53;52130.13;5064063;28;20282;-75
2021/09/10 05:53:41;;;;;;;;;;;;;;;-144.99;89.65;52162.75;5066114;28;19928;-75
2021/09/10 05:56:07;;;;;;;;;;;;;;;-144.99;89.69;52183.13;5070457;28;19928;-77
2021/09/10 05:58:35;;;;;;;;;;;;;;;-144.99;89.62;52162.75;5067475;28;19921;-75
2021/09/10 06:01:02;;;;;;;;;;;;;;;-144.99;89.46;52191.28;5074748;28;19967;-77
2021/09/10 06:03:28;;;;;;;;;;;;;;;-144.99;89.66;52174.97;5069030;28;19920;-77
2021/09/10 06:05:54;;;;;;;;;;;;;;;-144.99;89.92;52154.59;5063535;28;19920;-77
2021/09/10 06:08:21;;;;;;;;;;;;;;;-144.99;90.49;52142.38;5060242;28;20290;-76
2021/09/10 06:10:47;;;;;;;;;;;;;;;-144.99;90.82;52191.28;5065000;28;19927;-79
2021/09/10 06:13:14;;;;;;;;;;;;;;;-144.99;90.83;52195.34;5073154;28;19931;-77
2021/09/10 06:15:42;;;;;;;;;;;;;;;-144.99;90.70;52160.72;5070187;28;19954;-76
2021/09/10 06:18:08;;;;;;;;;;;;;;;-144.99;91.26;52172.94;5069037;28;19928;-77
2021/09/10 06:20:34;;;;;;;;;;;;;;;-144.99;91.82;52203.50;5064972;28;19958;-77
2021/09/10 06:23:01;;;;;;;;;;;;;;;-144.99;93.00;52170.91;5067164;28;19963;-76
2021/09/10 06:25:27;;;;;;;;;;;;;;;-144.99;93.45;52183.13;5059807;28;19990;-76
2021/09/10 06:27:54;;;;;;;;;;;;;;;-144.99;93.60;52168.84;5069389;28;19920;-74
2021/09/10 06:30:20;;;;;;;;;;;;;;;-144.99;93.92;52187.19;5063683;28;19928;-77
2021/09/10 06:32:48;;;;;;;;;;;;;;;-144.99;95.10;52236.13;5067667;28;19928;-76
2021/09/10 06:35:14;;;;;;;;;;;;;;;-144.99;96.43;52199.44;5062612;28;19924;-76
2021/09/10 06:37:41;;;;;;;;;;;;;;;-144.99;96.86;52177.00;5070502;28;19931;-80
2021/09/10 06:40:08;;;;;;;;;;;;;;;-144.99;98.02;52152.56;5079010;28;19993;-80
2021/09/10 06:42:34;;;;;;;;;;;;;;;-144.99;98.46;52179.06;5073423;28;19920;-78
2021/09/10 06:45:00;;;;;;;;;;;;;;;-144.99;98.67;52166.81;5069425;28;19943;-77
2021/09/10 06:47:27;;;;;;;;;;;;;;;-144.99;98.53;52168.84;5073649;28;19920;-79
2021/09/10 06:49:55;;;;;;;;;;;;;;;-144.99;98.61;52191.28;5074745;28;20912;-77
2021/09/10 06:52:21;;;;;;;;;;;;;;;-144.99;99.19;52160.72;5069745;28;19940;-76
2021/09/10 06:54:48;;;;;;;;;;;;;;;-144.99;99.91;52172.94;5070037;28;19921;-77
2021/09/10 06:57:14;;;;;;;;;;;;;;;-144.99;100.00;52162.75;5069812;28;20367;-74
2021/09/10 06:59:40;;;;;;;;;;;;;;;-144.99;100.00;52207.59;5067592;28;19942;-67
2021/09/10 07:02:07;;;;;;;;;;;;;;;-144.99;100.00;52189.25;5065610;28;20381;-69
2021/09/10 07:04:35;;;;;;;;;;;;;;;-144.99;100.00;52207.59;5062126;28;19963;-69
2021/09/10 07:07:03;;;;;;;;;;;;;;;-144.99;100.00;52203.50;5066530;28;19970;-71
2021/09/10 07:09:29;;;;;;;;;;;;;;;-144.99;100.00;52203.50;5073828;28;20416;-71
2021/09/10 07:11:56;;;;;;;;;;;;;;;-144.99;100.00;52158.66;5077217;28;19920;-70
2021/09/10 07:14:22;;;;;;;;;;;;;;;-144.99;100.00;52215.75;5071736;28;19926;-71
2021/09/10 07:16:48;;;;;;;;;;;;;;;-144.99;100.00;52191.28;5067499;28;19951;-73
2021/09/10 07:19:14;;;;;;;;;;;;;;;-144.99;100.00;52179.06;5061607;28;20038;-73
2021/09/10 07:21:41;;;;;;;;;;;;;;;-144.99;100.00;52195.34;5071275;28;19943;-72
2021/09/10 07:24:08;;;;;;;;;;;;;;;-144.99;100.00;52191.28;5067963;28;19965;-72
2021/09/10 07:26:35;;;;;;;;;;;;;;;-144.99;100.00;52227.97;5066914;28;20385;-72
2021/09/10 07:29:01;;;;;;;;;;;;;;;-144.99;100.00;52232.03;5069209;28;19920;-72
2021/09/10 07:31:27;;;;;;;;;;;;;;;-144.99;100.00;52174.97;5063103;28;19931;-72
2021/09/10 07:33:54;;;;;;;;;;;;;;;-144.99;100.00;52223.88;5061366;28;19948;-73
2021/09/10 07:36:20;;;;;;;;;;;;;;;-144.99;100.00;52191.28;5066118;28;19959;-72
2021/09/10 07:38:47;;;;;;;;;;;;;;;-144.99;100.00;52174.97;5068182;28;19991;-71
2021/09/10 07:41:14;;;;;;;;;;;;;;;-144.99;100.00;52168.84;5070951;28;19961;-72
2021/09/10 07:43:41;;;;;;;;;;;;;;;-144.99;100.00;52179.06;5071836;28;19938;-72
2021/09/10 07:46:07;;;;;;;;;;;;;;;-144.99;100.00;52215.75;5059070;28;19936;-71
2021/09/10 07:48:33;;;;;;;;;;;;;;;-144.99;100.00;52164.78;5062083;28;19924;-70
2021/09/10 07:51:00;;;;;;;;;;;;;;;-144.99;100.00;52166.81;5063123;28;19938;-72
2021/09/10 07:53:26;;;;;;;;;;;;;;;-144.99;100.00;52191.28;5065053;28;19927;-71
2021/09/10 07:55:52;;;;;;;;;;;;;;;-144.99;100.00;52191.28;5067135;28;20396;-70
2021/09/10 07:58:21;;;;;;;;;;;;;;;-144.99;100.00;52225.94;5064912;28;19931;-72
2021/09/10 08:00:47;;;;;;;;;;;;;;;-144.99;100.00;52199.44;5059962;28;20387;-72
2021/09/10 08:03:13;;;;;;;;;;;;;;;-144.99;100.00;52199.44;5064481;28;19929;-72
2021/09/10 08:05:40;;;;;;;;;;;;;;;-144.99;100.00;52170.91;5069035;28;19951;-73
2021/09/10 08:08:06;;;;;;;;;;;;;;;-144.99;100.00;52211.66;5066867;28;20030;-74
2021/09/10 08:10:33;;;;;;;;;;;;;;;-144.99;100.00;52146.44;5068839;28;20496;-71
2021/09/10 08:12:59;;;;;;;;;;;;;;;-144.99;100.00;52191.28;5065871;28;19960;-71
2021/09/10 08:15:27;;;;;;;;;;;;;;;-144.99;100.00;52154.59;5068602;28;20374;-74
2021/09/10 08:17:53;;;;;;;;;;;;;;;-144.99;100.00;52197.41;5065506;28;19921;-73
2021/09/10 08:20:19;;;;;;;;;;;;;;;-144.99;100.00;52201.47;5070498;28;19951;-73
2021/09/10 08:22:47;;;;;;;;;;;;;;;-144.99;100.00;52166.81;5064709;28;19934;-71
2021/09/10 08:25:15;;;;;;;;;;;;;;;-144.99;100.00;52213.69;5066280;28;20395;-73
2021/09/10 08:27:42;;;;;;;;;;;;;;;-144.99;100.00;52203.50;5068496;28;20060;-73
2021/09/10 08:30:09;;;;;;;;;;;;;;;-144.99;100.00;52193.31;5074722;28;20442;-72
2021/09/10 08:32:36;;;;;;;;;;;;;;;-144.99;100.00;52166.81;5068372;28;20382;-74
2021/09/10 08:35:03;;;;;;;;;;;;;;;-144.99;100.00;52179.06;5068644;28;19927;-72
2021/09/10 08:37:29;;;;;;;;;;;;;;;-144.99;100.00;52193.31;5061086;28;20057;-72
2021/09/10 08:39:57;;;;;;;;;;;;;;;-144.99;100.00;52170.91;5067314;28;19973;-74
2021/09/10 08:42:23;;;;;;;;;;;;;;;-144.99;100.00;52215.75;5070204;28;19954;-73
2021/09/10 08:44:49;;;;;;;;;;;;;;;-144.99;100.00;52177.00;5081621;28;20322;-73
2021/09/10 08:47:16;;;;;;;;;;;;;;;-144.99;100.00;52179.06;5065849;28;19952;-73
2021/09/10 08:49:45;;;;;;;;;;;;;;;-144.99;100.00;52203.50;5067382;28;19938;-73
2021/09/10 08:52:11;;;;;;;;;;;;;;;-144.99;100.00;52183.13;5066519;28;20332;-74
2021/09/10 08:54:38;;;;;;;;;;;;;;;-144.99;100.00;52191.28;5067769;28;19924;-72
2021/09/10 08:57:04;;;;;;;;;;;;;;;-144.99;100.00;52211.66;5068717;28;19972;-76
2021/09/10 08:59:30;;;;;;;;;;;;;;;-144.99;100.00;52195.34;5066069;28;19924;-74
2021/09/10 09:01:58;;;;;;;;;;;;;;;-144.99;100.00;52170.91;5063971;28;19934;-74
2021/09/10 09:04:32;;;;;;;;;;;;;;;-144.99;100.00;52187.19;5070909;28;19983;-73
2021/09/10 09:07:00;;;;;;;;;;;;;;;-144.99;100.00;52179.06;5071193;28;19966;-74
2021/09/10 09:09:37;;;;;;;;;;;;;;;-144.99;100.00;52199.44;5070013;28;20035;-73
2021/09/10 09:12:17;;;;;;;;;;;;;;;-144.99;100.00;52199.44;5072269;28;19938;-73
2021/09/10 09:14:44;;;;;;;;;;;;;;;-144.99;100.00;52203.50;5071485;28;19951;-74
2021/09/10 09:17:17;;;;;;;;;;;;;;;-144.99;100.00;52211.66;5068647;28;19935;-74
2021/09/10 09:19:43;;;;;;;;;;;;;;;-144.99;100.00;52187.19;5061232;28;19927;-71
2021/09/10 09:22:11;;;;;;;;;;;;;;;-144.99;100.00;52152.56;5068432;28;19920;-72
2021/09/10 09:24:39;;;;;;;;;;;;;;;-144.99;100.00;52191.28;5062971;28;20406;-73
2021/09/10 09:27:09;;;;;;;;;;;;;;;-144.99;100.00;52189.25;5069653;28;19920;-72
2021/09/10 09:29:48;;;;;;;;;;;;;;;-144.99;100.00;52130.13;5068411;28;19925;-73
2021/09/10 09:32:14;;;;;;;;;;;;;;;-144.99;100.00;52174.97;5063665;28;19920;-74
2021/09/10 09:34:45;;;;;;;;;;;;;;;-144.99;100.00;52215.75;5071380;28;19965;-73
2021/09/10 09:37:12;;;;;;;;;;;;;;;-144.99;100.00;52158.66;5063572;28;20336;-73
2021/09/10 09:39:52;;;;;;;;;;;;;;;-144.99;100.00;52146.44;5063491;28;20412;-72
2021/09/10 09:42:23;;;;;;;;;;;;;;;-144.99;100.00;52185.16;5055969;28;19936;-72
2021/09/10 09:45:05;;;;;;;;;;;;;;;-144.99;100.00;52187.19;5068871;28;19942;-73
2021/09/10 09:47:31;;;;;;;;;;;;;;;-144.99;100.00;52166.81;5069263;28;19940;-74
2021/09/10 09:50:04;;;;;;;;;;;;;;;-144.99;100.00;52187.19;5063696;28;19958;-73
2021/09/10 09:52:32;;;;;;;;;;;;;;;-144.99;100.00;52207.59;5064523;28;19964;-71
2021/09/10 09:54:58;;;;;;;;;;;;;;;-144.99;100.00;52183.13;5064055;28;19924;-72
2021/09/10 09:57:25;;;;;;;;;;;;;;;-144.99;100.00;52227.97;5067302;28;19957;-74
2021/09/10 09:59:52;;;;;;;;;;;;;;;-144.99;100.00;52191.28;5067414;28;20305;-72
2021/09/10 10:02:18;;;;;;;;;;;;;;;-144.99;100.00;52170.91;5068213;28;19966;-73
2021/09/10 10:04:44;;;;;;;;;;;;;;;-144.99;100.00;52191.28;5067651;28;19935;-72
2021/09/10 10:07:11;;;;;;;;;;;;;;;-144.99;100.00;52162.75;5062583;28;19959;-75
2021/09/10 10:09:41;;;;;;;;;;;;;;;-144.99;100.00;52191.28;5066726;28;20410;-71
2021/09/10 10:12:08;;;;;;;;;;;;;;;-144.99;100.00;52215.75;5066060;28;19958;-72
2021/09/10 10:14:37;;;;;;;;;;;;;;;-144.99;100.00;52203.50;5066153;28;19933;-72
2021/09/10 10:17:04;;;;;;;;;;;;;;;-144.99;100.00;52215.75;5066180;28;19920;-72
2021/09/10 10:19:44;;;;;;;;;;;;;;;-144.99;100.00;52195.34;5062652;28;19985;-72
2021/09/10 10:22:11;;;;;;;;;;;;;;;-144.99;100.00;52199.44;5070164;28;20278;-72
2021/09/10 10:24:41;;;;;;;;;;;;;;;-144.99;100.00;52238.16;5071420;28;19950;-72
2021/09/10 10:27:26;;;;;;;;;;;;;;;-144.99;100.00;52191.28;5074675;28;19979;-72
2021/09/10 10:29:52;;;;;;;;;;;;;;;-144.99;100.00;52187.19;5062446;28;19949;-71
2021/09/10 10:32:29;;;;;;;;;;;;;;;-144.99;100.00;52181.09;5064738;28;19968;-72
2021/09/10 10:35:10;;;;;;;;;;;;;;;-144.99;100.00;52162.75;5072177;28;19920;-72
2021/09/10 10:37:37;;;;;;;;;;;;;;;-144.99;100.00;52217.78;5068207;28;19960;-73
2021/09/10 10:40:18;;;;;;;;;;;;;;;-144.99;100.00;52203.50;5067820;28;19954;-73
2021/09/10 10:42:50;;;;;;;;;;;;;;;-144.99;100.00;52150.53;5067252;28;19949;-73
2021/09/10 10:45:16;;;;;;;;;;;;;;;-144.99;100.00;52207.59;5066123;28;19928;-74
2021/09/10 10:47:43;;;;;;;;;;;;;;;-144.99;100.00;52207.59;5077826;28;19950;-77
2021/09/10 10:50:32;;;;;;;;;;;;;;;-144.99;100.00;52191.28;5077004;28;19924;-73
2021/09/10 10:53:04;;;;;;;;;;;;;;;-144.99;100.00;52183.13;5067027;28;19939;-74
2021/09/10 10:55:31;;;;;;;;;;;;;;;-144.99;100.00;52205.53;5074400;28;19921;-75
2021/09/10 10:58:12;;;;;;;;;;;;;;;-144.99;100.00;52179.06;5072073;28;19941;-73
2021/09/10 11:00:47;;;;;;;;;;;;;;;-144.99;100.00;52179.06;5073400;28;20007;-73
2021/09/10 11:03:29;;;;;;;;;;;;;;;-144.99;100.00;52160.72;5067861;28;20426;-76
2021/09/10 11:05:56;;;;;;;;;;;;;;;-144.99;100.00;52191.28;5064936;28;20285;-73
2021/09/10 11:08:37;;;;;;;;;;;;;;;-144.99;100.00;52179.06;5062040;28;19920;-74
2021/09/10 11:11:03;;;;;;;;;;;;;;;-144.99;100.00;52191.28;5077867;28;19947;-73
2021/09/10 11:13:30;;;;;;;;;;;;;;;-144.99;100.00;52146.44;5072620;28;19928;-74
2021/09/10 11:15:58;;;;;;;;;;;;;;;-144.99;100.00;52130.13;5062642;28;19920;-76
2021/09/10 11:18:25;;;;;;;;;;;;;;;-144.99;100.00;52154.59;5065469;28;19954;-74
2021/09/10 11:20:53;;;;;;;;;;;;;;;-144.99;100.00;52156.63;5061345;28;20121;-74
2021/09/10 11:23:26;;;;;;;;;;;;;;;-144.99;100.00;52146.44;5063958;28;19924;-74
2021/09/10 11:25:54;;;;;;;;;;;;;;;-144.99;100.00;52117.91;5071128;28;19970;-75
2021/09/10 11:28:21;;;;;;;;;;;;;;;-144.99;100.00;52162.75;5071778;28;19920;-76
2021/09/10 11:30:48;;;;;;;;;;;;;;;-144.99;100.00;52146.44;5062977;28;19932;-74
2021/09/10 11:33:17;;;;;;;;;;;;;;;-144.99;100.00;52146.44;5061394;28;19921;-72
2021/09/10 11:35:44;;;;;;;;;;;;;;;-144.99;100.00;52134.22;5070174;28;19963;-73
2021/09/10 11:38:12;;;;;;;;;;;;;;;-144.99;100.00;52156.63;5093754;22;19921;-72
2021/09/10 11:40:39;;;;;;;;;;;;;;;-144.99;100.00;52179.06;5064672;28;19951;-75
2021/09/10 11:43:09;;;;;;;;;;;;;;;-144.99;100.00;52128.09;5086580;28;19932;-77
2021/09/10 11:45:36;;;;;;;;;;;;;;;-144.99;100.00;52158.66;5082832;28;19920;-75
2021/09/10 11:48:04;;;;;;;;;;;;;;;-144.99;100.00;52134.22;5065119;28;19932;-73
2021/09/10 11:50:45;;;;;;;;;;;;;;;-144.99;100.00;52109.75;5071486;28;19921;-77
2021/09/10 11:53:13;;;;;;;;;;;;;;;-144.99;99.54;52130.13;5071312;28;20016;-79
2021/09/10 11:55:39;;;;;;;;;;;;;;;-144.99;98.17;52134.22;5069895;28;19920;-78
2021/09/10 11:58:11;;;;;;;;;;;;;;;-144.99;98.61;52146.44;5084525;28;20369;-78
2021/09/10 12:00:37;;;;;;;;;;;;;;;-144.99;97.01;52185.16;5071734;28;19946;-77
2021/09/10 12:03:07;;;;;;;;;;;;;;;-144.99;97.46;52146.44;5077614;28;19965;-79
2021/09/10 12:05:33;;;;;;;;;;;;;;;-144.99;95.92;52136.25;5063258;28;20027;-77
2021/09/10 12:08:01;;;;;;;;;;;;;;;-144.99;96.71;52162.75;5070634;28;19924;-78
2021/09/10 12:10:28;;;;;;;;;;;;;;;-144.99;96.52;52105.69;5079490;28;19928;-77
2021/09/10 12:13:07;;;;;;;;;;;;;;;-144.99;94.72;52166.81;4376723;28;10000725;-77
2021/09/10 12:15:34;;;;;;;;;;;;;;;-144.99;94.06;52146.44;5066723;28;20122;-78
2021/09/10 12:18:06;;;;;;;;;;;;;;;-144.99;93.91;52113.84;5069249;28;19947;-76
2021/09/10 12:20:33;;;;;;;;;;;;;;;-144.99;92.47;52138.28;5069212;28;19935;-76
2021/09/10 12:23:02;;;;;;;;;;;;;;;-144.99;92.06;52130.13;5059409;28;19920;-78
2021/09/10 12:25:33;;;;;;;;;;;;;;;-144.99;91.93;52154.59;5067974;28;19967;-78